Terminal Aerodrome Forecast
Issued by NWS Mt. Holly, NJ

Home | Current Version | Previous Version | Text Only | Print | Product List | Glossary On
Versions: 1 2 3 4 5 6 7 8 9 10 11 12 13 14 15 16 17 18 19 20 21
000
FTUS41 KPHI 232000 AAA
TAFILG
TAF AMD
KILG 232000Z 2320/2418 18012KT P6SM SCT040
      TEMPO 2400/2403 3SM TSRA BKN035CB
     FM240300 25007KT 6SM -SHRA BR BKN050
     FM240500 31007KT P6SM VCSH SCT040 BKN100
     FM241400 35010KT P6SM BKN050=

USA.gov is the U.S. government's official web portal to all federal, state and local government web resources and services.